Time;durP1;ratioP1;P1;durP2;ratioP2;P2;SDS_P1;SDS_P2;PMS_P1;PMS_P2;Temp;Humidity;BMP_temperature;BMP_pressure;BME280_temperature;BME280_humidity;BME280_pressure;Samples;Min_cycle;Max_cycle;Signal;HPM_P1;HPM_P2
2021/07/24 00:01:56;;;;;;;13.60;8.10;;;;;;;12.39;100.00;100612.44;4847289;29;20033;-85
2021/07/24 00:04:21;;;;;;;16.98;8.65;;;;;;;12.41;100.00;100611.50;4847105;29;20069;-85
2021/07/24 00:06:47;;;;;;;15.23;8.80;;;;;;;12.38;100.00;100601.16;4848050;29;20149;-85
2021/07/24 00:09:13;;;;;;;17.15;9.50;;;;;;;12.29;100.00;100603.16;4847364;29;20033;-85
2021/07/24 00:11:39;;;;;;;15.38;8.90;;;;;;;12.27;100.00;100603.16;4863887;29;20039;-86
2021/07/24 00:14:07;;;;;;;13.20;8.43;;;;;;;12.36;100.00;100589.94;4847256;29;20050;-85
2021/07/24 00:16:32;;;;;;;15.98;9.77;;;;;;;12.20;100.00;100596.41;4847009;29;20081;-85
2021/07/24 00:18:57;;;;;;;15.10;9.02;;;;;;;12.26;100.00;100606.69;4847526;29;20394;-86
2021/07/24 00:21:23;;;;;;;14.98;8.80;;;;;;;12.24;100.00;100595.44;4846997;29;20112;-85
2021/07/24 00:23:48;;;;;;;17.63;9.20;;;;;;;12.40;100.00;100598.50;4846754;29;20548;-85
2021/07/24 00:26:14;;;;;;;15.48;9.73;;;;;;;12.26;100.00;100596.28;4846825;29;20029;-86
2021/07/24 00:28:41;;;;;;;16.98;9.57;;;;;;;12.23;100.00;100598.94;4846670;29;20155;-85
2021/07/24 00:31:06;;;;;;;16.35;9.73;;;;;;;12.27;100.00;100600.56;4846553;29;20036;-85
2021/07/24 00:33:31;;;;;;;16.95;9.77;;;;;;;12.26;100.00;100598.88;4847283;29;20029;-86
2021/07/24 00:35:57;;;;;;;17.83;9.52;;;;;;;12.27;100.00;100605.78;4847600;29;20029;-86
2021/07/24 00:38:24;;;;;;;16.10;9.32;;;;;;;12.22;100.00;100599.81;4846436;29;20026;-86
2021/07/24 00:40:56;;;;;;;19.75;10.10;;;;;;;12.20;100.00;100605.06;4846462;29;20026;-86
2021/07/24 00:43:30;;;;;;;16.15;10.10;;;;;;;12.22;100.00;100602.41;4847560;29;20436;-86
2021/07/24 00:45:56;;;;;;;20.05;9.68;;;;;;;12.21;100.00;100603.31;4846270;29;20052;-86
2021/07/24 00:48:23;;;;;;;17.35;9.48;;;;;;;12.09;100.00;100601.00;4846603;29;20124;-85
2021/07/24 00:50:51;;;;;;;23.40;9.98;;;;;;;12.02;100.00;100605.50;4846412;29;20498;-86
2021/07/24 00:53:34;;;;;;;15.43;9.27;;;;;;;12.01;100.00;100602.94;4846378;29;20033;-86
2021/07/24 00:56:00;;;;;;;18.40;9.63;;;;;;;11.98;100.00;100596.09;4847026;29;20030;-85
2021/07/24 00:58:27;;;;;;;15.55;9.95;;;;;;;12.01;100.00;100603.81;4846274;29;20026;-85
2021/07/24 01:00:53;;;;;;;15.82;9.10;;;;;;;12.04;100.00;100602.84;4846990;29;20030;-85
2021/07/24 01:03:19;;;;;;;16.20;9.88;;;;;;;12.04;100.00;100595.06;4845995;29;20033;-85
2021/07/24 01:05:46;;;;;;;18.05;9.70;;;;;;;12.08;100.00;100596.72;4846862;29;20125;-86
2021/07/24 01:08:12;;;;;;;14.13;8.95;;;;;;;11.99;100.00;100592.59;4846173;29;20033;-86
2021/07/24 01:10:38;;;;;;;16.67;9.63;;;;;;;11.89;100.00;100593.69;4846289;29;20451;-86
2021/07/24 01:13:03;;;;;;;14.32;8.93;;;;;;;11.91;100.00;100589.28;4846178;29;20029;-86
2021/07/24 01:15:29;;;;;;;15.00;9.95;;;;;;;11.86;100.00;100585.97;4845931;29;20032;-86
2021/07/24 01:17:54;;;;;;;15.65;9.30;;;;;;;11.77;100.00;100589.59;4845773;29;20097;-86
2021/07/24 01:20:20;;;;;;;18.10;9.50;;;;;;;11.83;100.00;100593.81;4845953;29;20124;-85
2021/07/24 01:22:45;;;;;;;16.48;9.50;;;;;;;11.82;100.00;100592.06;4862548;29;20483;-85
2021/07/24 01:25:11;;;;;;;15.52;9.20;;;;;;;11.84;100.00;100593.75;4862520;29;20037;-85
2021/07/24 01:27:45;;;;;;;22.55;9.98;;;;;;;11.83;100.00;100592.06;4845532;29;20048;-85
2021/07/24 01:30:12;;;;;;;17.55;9.52;;;;;;;11.77;100.00;100591.34;4845763;29;20037;-86
2021/07/24 01:32:38;;;;;;;15.70;9.57;;;;;;;11.84;100.00;100592.91;4845381;29;20044;-85
2021/07/24 01:35:04;;;;;;;18.45;10.45;;;;;;;11.78;100.00;100590.44;4846406;29;20022;-86
2021/07/24 01:37:29;;;;;;;18.10;9.75;;;;;;;11.83;100.00;100592.06;4845897;29;20033;-86
2021/07/24 01:39:54;;;;;;;17.58;9.63;;;;;;;11.79;100.00;100594.75;4845921;29;20121;-86
2021/07/24 01:42:19;;;;;;;21.20;10.05;;;;;;;11.79;100.00;100594.75;4845701;29;20181;-86
2021/07/24 01:44:45;;;;;;;17.67;9.52;;;;;;;11.79;100.00;100586.94;4845486;29;20118;-86
2021/07/24 01:47:10;;;;;;;17.65;9.57;;;;;;;11.65;100.00;100582.94;4845359;29;20025;-86
2021/07/24 01:55:13;;;;;;;16.35;9.48;;;;;;;11.63;100.00;100584.69;4862077;29;20036;-86
2021/07/24 01:57:43;;;;;;;17.65;9.30;;;;;;;11.53;100.00;100583.19;4845443;29;20475;-86
2021/07/24 02:00:10;;;;;;;17.02;9.98;;;;;;;11.52;100.00;100581.50;4845036;29;20120;-86
2021/07/24 02:02:36;;;;;;;21.10;9.52;;;;;;;11.53;100.00;100575.41;4845007;29;20039;-86
2021/07/24 02:05:04;;;;;;;15.60;9.00;;;;;;;11.56;100.00;100574.50;4844934;29;20036;-86
2021/07/24 02:07:34;;;;;;;18.85;9.70;;;;;;;11.56;100.00;100569.28;4844969;29;20033;-86
2021/07/24 02:10:01;;;;;;;16.77;9.02;;;;;;;11.49;100.00;100560.78;4845142;29;20029;-85
2021/07/24 02:12:26;;;;;;;15.95;10.65;;;;;;;11.47;100.00;100554.75;4845235;29;20029;-86
2021/07/24 02:14:52;;;;;;;16.05;9.40;;;;;;;11.50;100.00;100559.88;4861791;29;20048;-86
2021/07/24 02:17:17;;;;;;;16.23;9.65;;;;;;;11.58;100.00;100560.59;4844733;29;20025;-85
2021/07/24 02:19:43;;;;;;;21.27;10.20;;;;;;;11.74;100.00;100556.72;4861587;29;20085;-86
2021/07/24 02:22:09;;;;;;;19.17;9.80;;;;;;;11.75;100.00;100558.44;4845148;29;20083;-86
2021/07/24 02:24:34;;;;;;;16.42;9.18;;;;;;;11.61;100.00;100551.88;4844745;29;20072;-86
2021/07/24 02:26:59;;;;;;;17.15;9.23;;;;;;;11.78;100.00;100541.91;4845174;29;20029;-86
2021/07/24 02:29:27;;;;;;;15.07;9.23;;;;;;;11.65;100.00;100551.75;4844973;29;20450;-86
2021/07/24 02:31:55;;;;;;;16.95;9.35;;;;;;;11.62;100.00;100538.84;4844883;29;20044;-85
2021/07/24 02:34:21;;;;;;;16.50;9.98;;;;;;;11.69;100.00;100539.53;4844712;29;20021;-86
2021/07/24 02:36:46;;;;;;;19.27;9.20;;;;;;;11.67;100.00;100543.94;4845442;29;20378;-86
2021/07/24 02:39:11;;;;;;;17.23;9.65;;;;;;;11.64;100.00;100529.28;4844825;29;20033;-86
2021/07/24 02:41:37;;;;;;;19.60;9.55;;;;;;;11.65;100.00;100535.31;4844572;29;20518;-86
2021/07/24 02:44:11;;;;;;;16.50;9.52;;;;;;;11.58;100.00;100531.16;4844687;29;20036;-85
2021/07/24 02:46:36;;;;;;;19.48;9.88;;;;;;;11.66;100.00;100527.47;4845494;29;20029;-86
2021/07/24 02:49:03;;;;;;;17.77;9.55;;;;;;;11.64;100.00;100524.06;4844346;29;20044;-86
2021/07/24 02:51:28;;;;;;;18.23;10.18;;;;;;;11.69;100.00;100518.75;4844696;29;20064;-86
2021/07/24 02:53:53;;;;;;;17.27;10.30;;;;;;;11.70;100.00;100521.34;4844795;29;20463;-86
2021/07/24 02:56:19;;;;;;;18.02;9.00;;;;;;;11.65;100.00;100520.56;4844782;29;20375;-86
2021/07/24 02:58:44;;;;;;;16.33;8.95;;;;;;;11.54;100.00;100512.16;4844315;29;20022;-86
2021/07/24 03:01:13;;;;;;;18.30;9.45;;;;;;;11.52;100.00;100509.63;4844330;29;20025;-85
2021/07/24 03:03:38;;;;;;;21.02;9.32;;;;;;;11.52;100.00;100500.97;4861167;29;20491;-85
2021/07/24 03:06:03;;;;;;;18.23;10.30;;;;;;;11.48;100.00;100509.72;4845067;29;20035;-86
2021/07/24 03:08:29;;;;;;;18.55;10.45;;;;;;;11.48;100.00;100502.78;4844531;29;20124;-86
2021/07/24 03:10:54;;;;;;;25.13;11.07;;;;;;;11.45;100.00;100497.66;4844199;29;20110;-86
2021/07/24 03:13:19;;;;;;;18.05;10.50;;;;;;;11.47;100.00;100482.03;4844608;29;20064;-86
2021/07/24 03:15:45;;;;;;;20.83;10.35;;;;;;;11.53;100.00;100481.91;4844958;29;20475;-86
2021/07/24 03:18:11;;;;;;;17.75;10.32;;;;;;;11.46;100.00;100473.41;4844553;29;20479;-86
2021/07/24 03:20:36;;;;;;;21.27;11.32;;;;;;;11.50;100.00;100468.97;4844366;29;20085;-86
2021/07/24 03:23:01;;;;;;;22.08;11.40;;;;;;;11.51;100.00;100471.56;4844180;29;20026;-86
2021/07/24 03:25:27;;;;;;;17.25;10.57;;;;;;;11.57;100.00;100467.09;4844820;29;20052;-86
2021/07/24 03:27:54;;;;;;;22.58;12.45;;;;;;;11.55;100.00;100461.94;4844554;29;20072;-86
2021/07/24 03:30:19;;;;;;;18.63;11.32;;;;;;;11.59;100.00;100462.72;4844943;29;20044;-86
2021/07/24 03:32:45;;;;;;;18.80;11.00;;;;;;;11.54;100.00;100465.41;4844899;29;20030;-86
2021/07/24 03:35:11;;;;;;;18.90;11.15;;;;;;;11.81;100.00;100465.66;4860633;29;20033;-86
2021/07/24 03:37:37;;;;;;;26.35;11.90;;;;;;;11.84;100.00;100475.97;4844668;29;20034;-86
2021/07/24 03:40:03;;;;;;;20.38;11.15;;;;;;;11.82;100.00;100475.97;4844094;29;20038;-86
2021/07/24 03:42:28;;;;;;;20.05;11.15;;;;;;;11.79;100.00;100478.66;4844774;29;20145;-86
2021/07/24 03:44:53;;;;;;;21.20;12.07;;;;;;;11.79;100.00;100467.41;4843937;29;20486;-86
2021/07/24 03:47:19;;;;;;;19.15;11.35;;;;;;;11.81;100.00;100473.44;4843991;29;20029;-85
2021/07/24 03:49:44;;;;;;;19.42;11.23;;;;;;;11.94;100.00;100474.88;4844806;29;20406;-86
2021/07/24 03:52:09;;;;;;;20.92;11.68;;;;;;;11.93;100.00;100474.00;4843917;29;20029;-86
2021/07/24 03:54:34;;;;;;;18.55;10.98;;;;;;;11.95;100.00;100476.59;4844208;29;20494;-86
2021/07/24 03:57:00;;;;;;;20.63;11.40;;;;;;;11.95;100.00;100474.00;4843786;29;20033;-86
2021/07/24 03:59:25;;;;;;;20.20;11.43;;;;;;;11.95;100.00;100474.00;4844217;29;20475;-86
2021/07/24 04:02:00;;;;;;;18.60;11.00;;;;;;;12.03;100.00;100479.81;4843881;29;20579;-86
2021/07/24 04:04:25;;;;;;;17.48;9.90;;;;;;;12.02;100.00;100478.13;4844168;29;20037;-86
2021/07/24 04:06:53;;;;;;;19.30;10.93;;;;;;;12.07;100.00;100480.59;4846063;29;20406;-86
2021/07/24 04:09:20;;;;;;;16.55;10.85;;;;;;;12.03;100.00;100479.81;4847413;29;20136;-86
2021/07/24 04:11:45;;;;;;;24.58;10.68;;;;;;;12.04;100.00;100478.97;4863837;29;20078;-86
2021/07/24 04:14:13;;;;;;;19.85;11.30;;;;;;;12.24;100.00;100474.97;4847376;29;20029;-86
2021/07/24 04:16:38;;;;;;;17.20;9.30;;;;;;;12.28;100.00;100474.84;4847007;29;20439;-86
2021/07/24 04:19:04;;;;;;;25.15;10.75;;;;;;;12.32;100.00;100476.50;4847179;29;20029;-86
2021/07/24 04:21:29;;;;;;;17.58;10.88;;;;;;;12.36;100.00;100467.69;4847406;29;20467;-86
2021/07/24 04:23:55;;;;;;;17.30;11.07;;;;;;;12.40;100.00;100473.66;4846735;29;20033;-86
2021/07/24 04:26:23;;;;;;;16.00;9.98;;;;;;;12.40;100.00;100460.66;4847684;29;20028;-86
2021/07/24 04:28:48;;;;;;;15.27;9.88;;;;;;;12.48;100.00;100463.91;4846715;29;20038;-86
2021/07/24 04:31:14;;;;;;;19.13;10.13;;;;;;;12.47;100.00;100463.94;4846731;29;20025;-86
2021/07/24 04:33:40;;;;;;;15.93;9.75;;;;;;;12.54;100.00;100468.09;4863475;29;20567;-86
2021/07/24 04:36:06;;;;;;;18.48;9.90;;;;;;;12.65;100.00;100471.22;4846746;29;20116;-86
2021/07/24 04:38:31;;;;;;;18.08;9.95;;;;;;;12.70;100.00;100471.97;4846506;29;20483;-86
2021/07/24 04:40:56;;;;;;;18.23;9.82;;;;;;;12.80;100.00;100462.16;4863055;29;20132;-86
2021/07/24 04:43:22;;;;;;;15.77;10.13;;;;;;;12.85;100.00;100468.06;4846490;29;20454;-86
2021/07/24 04:45:47;;;;;;;14.68;9.45;;;;;;;12.87;100.00;100468.91;4846573;29;20618;-85
2021/07/24 04:48:12;;;;;;;17.92;9.93;;;;;;;12.96;100.00;100472.97;4847080;29;20506;-86
2021/07/24 04:50:47;;;;;;;15.27;10.25;;;;;;;12.98;100.00;100482.44;4846534;29;20033;-86
2021/07/24 04:53:15;;;;;;;16.20;9.07;;;;;;;13.08;100.00;100476.06;4846289;29;20026;-85
2021/07/24 04:55:41;;;;;;;14.20;9.35;;;;;;;13.03;100.00;100477.09;4846388;29;20085;-86
2021/07/24 04:58:07;;;;;;;14.27;9.20;;;;;;;13.16;100.00;100481.03;4846551;29;20108;-85
2021/07/24 05:00:39;;;;;;;14.18;8.43;;;;;;;13.27;100.00;100485.94;4846922;29;20025;-85
2021/07/24 05:03:04;;;;;;;16.10;8.80;;;;;;;13.36;100.00;100488.25;4847204;29;20081;-85
2021/07/24 05:05:30;;;;;;;13.63;8.93;;;;;;;13.42;100.00;100503.69;4846824;29;20034;-86
2021/07/24 05:07:56;;;;;;;15.63;8.70;;;;;;;13.76;100.00;100507.84;4868153;24;20069;-86
2021/07/24 05:10:21;;;;;;;20.13;9.32;;;;;;;14.11;100.00;100514.53;4846488;29;20034;-87
2021/07/24 05:12:46;;;;;;;16.00;9.23;;;;;;;14.58;100.00;100516.44;4862918;29;20026;-87
2021/07/24 05:15:11;;;;;;;14.77;9.13;;;;;;;14.81;100.00;100515.59;4846333;29;20036;-87
2021/07/24 05:17:40;;;;;;;12.40;8.48;;;;;;;15.27;100.00;100506.03;4845102;29;20068;-87
2021/07/24 05:20:07;;;;;;;12.02;7.25;;;;;;;15.45;100.00;100509.72;4846128;29;20478;-87
2021/07/24 05:22:32;;;;;;;13.27;8.02;;;;;;;15.78;100.00;100515.41;4846724;29;20475;-87
2021/07/24 05:24:57;;;;;;;11.43;7.57;;;;;;;15.86;100.00;100508.97;4846100;29;20040;-87
2021/07/24 05:27:23;;;;;;;12.38;7.78;;;;;;;16.22;100.00;100507.47;4846089;29;20451;-86
2021/07/24 05:29:48;;;;;;;11.23;6.95;;;;;;;16.21;100.00;100504.00;4846004;29;20033;-86
2021/07/24 05:32:13;;;;;;;14.20;8.20;;;;;;;16.42;100.00;100496.16;4846034;29;20044;-86
2021/07/24 05:34:38;;;;;;;16.50;7.55;;;;;;;16.87;100.00;100495.06;4862650;29;20030;-86
2021/07/24 05:37:04;;;;;;;13.02;7.07;;;;;;;16.67;100.00;100496.78;4845734;29;20026;-86
2021/07/24 05:39:29;;;;;;;12.82;7.30;;;;;;;17.02;100.00;100489.97;4862282;29;20025;-86
2021/07/24 05:41:55;;;;;;;10.32;6.35;;;;;;;16.88;100.00;100489.75;4862410;29;20057;-86
2021/07/24 05:44:20;;;;;;;11.48;6.63;;;;;;;17.44;100.00;100490.66;4845800;29;20525;-85
2021/07/24 05:46:45;;;;;;;12.52;6.43;;;;;;;17.51;100.00;100489.44;4845749;29;20030;-85
2021/07/24 05:49:11;;;;;;;12.07;6.78;;;;;;;17.88;100.00;100487.66;4845693;29;20123;-85
2021/07/24 05:51:39;;;;;;;9.80;6.57;;;;;;;17.83;100.00;100490.53;4845744;29;20026;-85
2021/07/24 05:54:04;;;;;;;12.07;6.68;;;;;;;17.70;100.00;100487.63;4845631;29;20025;-85
2021/07/24 05:56:29;;;;;;;11.45;6.88;;;;;;;17.68;100.00;100484.22;4845641;29;20498;-86
2021/07/24 05:58:54;;;;;;;11.45;6.57;;;;;;;18.03;100.00;100483.44;4845394;29;20089;-86
2021/07/24 06:01:20;;;;;;;11.80;6.20;;;;;;;18.31;100.00;100475.84;4862026;29;20029;-85
2021/07/24 06:03:45;;;;;;;12.05;6.13;;;;;;;18.12;100.00;100469.84;4845636;29;20406;-85
2021/07/24 06:06:10;;;;;;;11.10;6.82;;;;;;;18.06;100.00;100481.50;4845785;29;20073;-86
2021/07/24 06:08:36;;;;;;;10.70;6.63;;;;;;;18.14;100.00;100478.50;4877359;29;20062;-84
2021/07/24 06:11:04;;;;;;;12.93;7.80;;;;;;;17.66;100.00;100477.34;4870256;29;20049;-84
2021/07/24 06:13:31;;;;;;;12.10;7.15;;;;;;;18.43;100.00;100479.63;4847433;29;20034;-86
2021/07/24 06:15:56;;;;;;;12.98;7.07;;;;;;;18.90;100.00;100473.63;4845213;29;20025;-86
2021/07/24 06:18:21;;;;;;;17.52;6.60;;;;;;;18.51;100.00;100482.69;4845074;29;20548;-86
2021/07/24 06:20:48;;;;;;;11.18;6.28;;;;;;;18.52;100.00;100475.66;4861661;29;20120;-86
2021/07/24 06:23:15;;;;;;;13.60;6.22;;;;;;;18.54;100.00;100466.78;4861688;29;20029;-86
2021/07/24 06:25:41;;;;;;;10.25;5.90;;;;;;;19.06;99.63;100452.63;4845043;29;20030;-86
2021/07/24 06:28:06;;;;;;;9.48;5.75;;;;;;;19.27;99.00;100447.94;4845080;29;20029;-86
2021/07/24 06:30:33;;;;;;;10.23;6.22;;;;;;;19.68;96.66;100439.53;4861278;29;20093;-86
2021/07/24 06:32:58;;;;;;;9.38;5.72;;;;;;;19.07;99.71;100460.44;4845218;29;20043;-85
2021/07/24 06:35:24;;;;;;;12.93;6.18;;;;;;;19.37;98.85;100440.41;4845611;29;20475;-86
2021/07/24 06:37:51;;;;;;;12.93;5.65;;;;;;;18.90;100.00;100441.25;4851265;29;20098;-87
2021/07/24 06:40:17;;;;;;;11.48;5.55;;;;;;;19.46;99.42;100434.63;4848475;29;20093;-87
2021/07/24 06:42:42;;;;;;;11.75;5.80;;;;;;;19.42;97.33;100427.81;4845600;29;20464;-87
2021/07/24 06:45:08;;;;;;;11.25;5.90;;;;;;;19.71;95.24;100429.66;4862044;29;20538;-87
2021/07/24 06:47:33;;;;;;;11.30;5.90;;;;;;;19.79;94.35;100421.31;4861714;29;20030;-87
2021/07/24 06:49:58;;;;;;;13.45;6.00;;;;;;;19.98;91.79;100416.66;4845195;29;20061;-88
2021/07/24 06:52:24;;;;;;;10.60;5.47;;;;;;;20.36;93.99;100418.75;4845044;29;20032;-88
2021/07/24 06:54:49;;;;;;;13.38;4.82;;;;;;;20.08;90.48;100422.22;4845485;29;20045;-88
2021/07/24 06:57:15;;;;;;;10.10;5.05;;;;;;;20.39;89.66;100410.66;4845562;29;20115;-88
2021/07/24 06:59:40;;;;;;;8.17;4.70;;;;;;;20.50;90.00;100417.06;4844665;29;20522;-88
2021/07/24 07:02:06;;;;;;;10.40;5.25;;;;;;;19.90;89.35;100408.38;4844720;29;20285;-88
2021/07/24 07:04:32;;;;;;;13.52;5.25;;;;;;;20.10;87.07;100408.94;4845181;29;20033;-88
2021/07/24 07:06:57;;;;;;;9.82;4.35;;;;;;;20.54;83.47;100406.28;4846229;29;20064;-88
2021/07/24 07:09:22;;;;;;;11.20;5.07;;;;;;;20.66;83.08;100410.78;4845108;29;20041;-87
2021/07/24 07:11:48;;;;;;;11.48;4.90;;;;;;;21.10;83.58;100399.19;4861572;29;20041;-87
2021/07/24 07:14:13;;;;;;;12.30;4.13;;;;;;;20.46;83.99;100396.16;4861208;29;20026;-88
2021/07/24 07:16:38;;;;;;;7.95;4.80;;;;;;;20.88;83.35;100401.53;4861442;29;20139;-89
2021/07/24 07:19:06;;;;;;;11.40;4.57;;;;;;;20.81;83.06;100401.06;4844470;29;20379;-89
2021/07/24 07:21:32;;;;;;;9.35;4.50;;;;;;;20.69;81.41;100389.50;4844832;29;20058;-88
2021/07/24 07:23:57;;;;;;;10.90;4.55;;;;;;;20.92;80.85;100388.03;4860901;29;20025;-88
2021/07/24 07:26:28;;;;;;;8.98;4.65;;;;;;;20.74;80.28;100389.19;4860903;29;20543;-88
2021/07/24 07:28:55;;;;;;;10.60;3.83;;;;;;;21.37;79.54;100383.38;4844426;29;20093;-89
2021/07/24 07:31:21;;;;;;;10.45;4.28;;;;;;;21.19;77.62;100383.72;4860922;29;20029;-87
2021/07/24 07:33:47;;;;;;;9.15;3.90;;;;;;;21.34;77.96;100388.00;4844427;29;20032;-88
2021/07/24 07:36:12;;;;;;;9.20;4.40;;;;;;;21.11;78.85;100384.22;4860880;29;20029;-87
2021/07/24 07:38:37;;;;;;;11.23;5.22;;;;;;;21.23;78.16;100387.84;4861034;29;20030;-88
2021/07/24 07:41:02;;;;;;;7.70;4.32;;;;;;;21.51;75.07;100376.34;4861966;29;20372;-88
2021/07/24 07:43:28;;;;;;;8.87;4.00;;;;;;;21.24;76.96;100387.72;4864207;29;20025;-87
2021/07/24 07:45:53;;;;;;;10.82;4.72;;;;;;;21.96;73.41;100384.75;4847832;29;20333;-87
2021/07/24 07:48:18;;;;;;;9.85;4.35;;;;;;;21.99;73.34;100373.97;4864634;29;20025;-87
2021/07/24 07:50:44;;;;;;;8.33;3.90;;;;;;;21.38;77.19;100366.59;4864301;29;20077;-87
2021/07/24 07:53:10;;;;;;;10.43;4.65;;;;;;;22.37;73.30;100366.03;4864281;29;20282;-89
2021/07/24 07:55:36;;;;;;;9.75;4.57;;;;;;;21.92;75.73;100368.28;4847532;29;20122;-88
2021/07/24 07:58:08;;;;;;;9.00;4.35;;;;;;;22.19;73.20;100365.53;4847406;29;20044;-87
2021/07/24 08:00:34;;;;;;;11.30;4.80;;;;;;;22.37;73.54;100368.69;4847458;29;20048;-87
2021/07/24 08:03:00;;;;;;;10.25;4.72;;;;;;;22.41;71.22;100362.22;4848070;29;20483;-87
2021/07/24 08:05:25;;;;;;;7.63;4.00;;;;;;;22.88;70.94;100365.06;4863933;29;20376;-88
2021/07/24 08:07:51;;;;;;;9.25;3.72;;;;;;;23.06;69.10;100345.25;4847116;29;20503;-87
2021/07/24 08:10:16;;;;;;;11.38;4.50;;;;;;;22.24;71.47;100352.84;4847430;29;20121;-87
2021/07/24 08:12:42;;;;;;;13.18;4.82;;;;;;;22.64;70.53;100355.31;4848286;29;20033;-87
2021/07/24 08:15:08;;;;;;;11.40;3.78;;;;;;;23.37;67.24;100343.78;4847436;29;20389;-88
2021/07/24 08:17:33;;;;;;;6.65;3.15;;;;;;;23.24;68.41;100334.22;4847433;29;20578;-88
2021/07/24 08:19:58;;;;;;;8.65;4.20;;;;;;;23.03;66.45;100334.88;4847062;29;20065;-87
2021/07/24 08:22:24;;;;;;;8.93;3.70;;;;;;;22.76;66.47;100350.94;4847130;29;20029;-88
2021/07/24 08:24:49;;;;;;;11.20;3.90;;;;;;;22.92;66.97;100337.44;4863610;29;20034;-88
2021/07/24 08:27:14;;;;;;;11.50;4.47;;;;;;;23.04;63.71;100328.63;4847229;29;20036;-88
2021/07/24 08:29:39;;;;;;;8.33;3.67;;;;;;;22.53;66.67;100334.91;4846910;29;20065;-87
2021/07/24 08:32:09;;;;;;;8.30;3.90;;;;;;;23.30;66.02;100331.97;4847232;29;20274;-88
2021/07/24 08:34:34;;;;;;;11.98;4.13;;;;;;;23.47;65.06;100324.56;4863572;29;20349;-87
2021/07/24 08:37:00;;;;;;;7.82;3.90;;;;;;;23.37;65.15;100327.06;4847101;29;20607;-88
2021/07/24 08:39:25;;;;;;;10.27;3.47;;;;;;;23.59;65.44;100321.00;4846711;29;20132;-88
2021/07/24 08:41:50;;;;;;;7.53;4.13;;;;;;;23.04;65.64;100320.69;4863321;29;20053;-87
2021/07/24 08:44:15;;;;;;;9.35;3.92;;;;;;;22.92;63.21;100317.13;4846745;29;20064;-86
2021/07/24 08:46:41;;;;;;;10.57;3.92;;;;;;;23.09;61.40;100318.56;4846802;29;20506;-87
2021/07/24 08:49:06;;;;;;;12.18;3.90;;;;;;;23.98;59.14;100319.72;4863268;29;20021;-87
2021/07/24 08:51:35;;;;;;;9.93;3.97;;;;;;;23.62;62.28;100321.59;4846463;29;20026;-86
2021/07/24 08:54:00;;;;;;;9.40;4.03;;;;;;;23.49;61.59;100320.84;4846788;29;20530;-87
2021/07/24 08:56:29;;;;;;;7.90;3.70;;;;;;;23.66;59.85;100316.91;4863435;29;20037;-87
2021/07/24 08:58:58;;;;;;;7.80;3.30;;;;;;;23.60;59.42;100318.22;4846834;29;20033;-87
2021/07/24 09:01:25;;;;;;;10.00;3.10;;;;;;;24.14;56.58;100319.38;4863037;29;20057;-87
2021/07/24 09:03:52;;;;;;;9.95;3.40;;;;;;;24.73;55.98;100318.25;4863180;29;20034;-87
2021/07/24 09:06:21;;;;;;;8.50;3.60;;;;;;;24.19;55.80;100330.44;4863050;29;20086;-87
2021/07/24 09:08:52;;;;;;;9.75;3.80;;;;;;;24.71;54.28;100322.81;4846453;29;20026;-87
2021/07/24 09:11:19;;;;;;;11.82;3.15;;;;;;;24.17;55.89;100315.63;4862969;29;20037;-88
2021/07/24 09:13:44;;;;;;;6.80;3.33;;;;;;;24.18;57.84;100314.69;4862744;29;20543;-88
2021/07/24 09:16:10;;;;;;;7.82;3.25;;;;;;;25.02;53.85;100311.38;4862728;29;20037;-88
2021/07/24 09:18:37;;;;;;;7.22;3.15;;;;;;;24.50;56.18;100312.97;4846006;29;20113;-88
2021/07/24 09:21:02;;;;;;;7.22;3.22;;;;;;;24.53;56.95;100311.88;4846076;29;20117;-88
2021/07/24 09:23:31;;;;;;;6.80;3.58;;;;;;;24.10;59.40;100304.66;4846705;29;20061;-88
2021/07/24 09:25:57;;;;;;;9.02;3.63;;;;;;;24.12;56.50;100297.44;4845854;29;20112;-87
2021/07/24 09:28:22;;;;;;;6.35;3.20;;;;;;;24.47;58.73;100301.78;4845864;29;20053;-88
2021/07/24 09:30:47;;;;;;;9.73;3.30;;;;;;;24.50;57.32;100304.16;4845953;29;20108;-87
2021/07/24 09:33:18;;;;;;;7.60;3.50;;;;;;;25.32;55.33;100293.06;4862574;29;20037;-88
2021/07/24 09:35:45;;;;;;;7.80;3.15;;;;;;;24.73;50.81;100297.03;4862805;29;20029;-88
2021/07/24 09:38:10;;;;;;;7.43;2.75;;;;;;;24.23;52.48;100288.63;4845704;29;20144;-87
2021/07/24 09:40:36;;;;;;;8.60;3.53;;;;;;;24.49;53.36;100297.19;4845794;29;20507;-88
2021/07/24 09:43:02;;;;;;;8.43;3.08;;;;;;;24.83;53.95;100299.75;4845977;29;20029;-87
2021/07/24 09:45:27;;;;;;;7.00;3.35;;;;;;;24.79;52.08;100299.16;4845610;29;20029;-88
2021/07/24 09:47:54;;;;;;;7.55;3.42;;;;;;;24.29;54.20;100294.31;4862399;29;20403;-88
2021/07/24 09:50:20;;;;;;;11.60;3.80;;;;;;;24.56;53.63;100293.06;4864483;29;20482;-87
2021/07/24 09:52:52;;;;;;;10.10;3.20;;;;;;;24.75;50.98;100295.06;4846784;29;20036;-88
2021/07/24 09:55:23;;;;;;;8.25;3.08;;;;;;;24.50;53.54;100297.06;4845835;29;20471;-87
2021/07/24 09:57:50;;;;;;;8.60;3.13;;;;;;;24.92;50.46;100306.97;4862148;29;20066;-87
2021/07/24 10:00:37;;;;;;;8.63;3.75;;;;;;;24.82;49.67;100296.25;4845664;29;20475;-87
2021/07/24 10:03:04;;;;;;;8.02;3.55;;;;;;;24.97;47.97;100294.13;4845334;29;20078;-87
2021/07/24 10:05:36;;;;;;;9.00;3.42;;;;;;;26.13;47.01;100294.03;4845089;29;20376;-88
2021/07/24 10:08:09;;;;;;;6.93;3.40;;;;;;;25.12;50.06;100292.84;4845224;29;20030;-87
2021/07/24 10:10:37;;;;;;;8.00;3.15;;;;;;;24.68;50.68;100294.72;4846333;29;20068;-87
2021/07/24 10:13:10;;;;;;;8.82;3.33;;;;;;;24.74;49.35;100286.28;4861779;29;20479;-88
2021/07/24 10:15:38;;;;;;;6.97;3.00;;;;;;;25.42;49.95;100292.13;4861909;29;20032;-87
2021/07/24 10:18:05;;;;;;;9.07;3.50;;;;;;;26.23;47.76;100297.56;4861725;29;20037;-87
2021/07/24 10:20:34;;;;;;;9.65;3.65;;;;;;;26.88;46.12;100283.84;4845567;29;20489;-87
2021/07/24 10:22:59;;;;;;;7.03;3.25;;;;;;;25.54;48.71;100284.09;4861725;29;20030;-87
2021/07/24 10:25:24;;;;;;;7.33;3.70;;;;;;;26.80;46.96;100282.72;4862281;29;20368;-87
2021/07/24 10:27:52;;;;;;;8.27;3.65;;;;;;;26.86;46.27;100287.50;4862081;29;20306;-87
2021/07/24 10:30:27;;;;;;;9.68;3.60;;;;;;;25.22;49.47;100285.88;4861532;29;20108;-87
2021/07/24 10:32:54;;;;;;;7.57;3.10;;;;;;;26.42;48.63;100286.16;4845197;29;20120;-88
2021/07/24 10:35:39;;;;;;;23.30;6.10;;;;;;;25.89;48.46;100276.63;4845135;29;20570;-87
2021/07/24 10:38:30;;;;;;;7.65;3.60;;;;;;;25.77;47.24;100267.03;4861546;29;20149;-87
2021/07/24 10:41:21;;;;;;;10.35;4.10;;;;;;;26.43;47.63;100276.38;4845508;29;20021;-88
2021/07/24 10:44:35;;;;;;;9.18;4.00;;;;;;;26.97;47.13;100272.34;4861532;29;20112;-87
2021/07/24 10:47:00;;;;;;;10.40;4.10;;;;;;;25.51;48.94;100271.09;4841909;29;20511;-87
2021/07/24 10:49:26;;;;;;;8.20;4.33;;;;;;;26.28;47.14;100271.41;4845076;29;20361;-88
2021/07/24 10:51:54;;;;;;;6.53;4.10;;;;;;;26.81;47.60;100262.28;4871934;29;20029;-87
2021/07/24 10:54:20;;;;;;;8.23;3.92;;;;;;;27.16;45.80;100256.41;4868181;29;20041;-87
2021/07/24 10:56:46;;;;;;;8.98;4.85;;;;;;;27.37;44.16;100250.06;4866387;29;20029;-88
2021/07/24 10:59:17;;;;;;;8.32;4.10;;;;;;;27.36;44.71;100253.72;4845286;29;20033;-88
2021/07/24 11:01:56;;;;;;;7.40;3.40;;;;;;;26.80;45.47;100250.81;4844931;29;20029;-87
2021/07/24 11:04:37;;;;;;;7.43;3.60;;;;;;;26.96;46.95;100244.91;4861199;29;20033;-88
2021/07/24 11:07:21;;;;;;;9.02;3.65;;;;;;;26.99;45.93;100235.81;4861743;29;20034;-86
2021/07/24 11:09:53;;;;;;;9.27;4.25;;;;;;;26.63;46.66;100235.53;4867213;23;20043;-86
2021/07/24 11:12:33;;;;;;;6.45;3.65;;;;;;;26.34;47.38;100230.16;4844702;29;20041;-86
2021/07/24 11:15:00;;;;;;;8.68;3.90;;;;;;;26.39;48.50;100228.78;4861786;29;20022;-87
2021/07/24 11:17:25;;;;;;;7.65;4.13;;;;;;;26.91;46.12;100223.22;4848135;29;20402;-87
2021/07/24 11:19:50;;;;;;;11.55;3.70;;;;;;;27.47;44.56;100214.44;4848155;29;20037;-87